Time;durP1;ratioP1;P1;durP2;ratioP2;P2;SDS_P1;SDS_P2;PMS_P1;PMS_P2;Temp;Humidity;BMP_temperature;BMP_pressure;BME280_temperature;BME280_humidity;BME280_pressure;Samples;Min_cycle;Max_cycle;Signal;HPM_P1;HPM_P2
2023/06/02 00:02:12;;;;;;;9.40;3.00;;;;;;;18.03;48.22;100054.55;105986;1259;61313;-54
2023/06/02 00:04:40;;;;;;;6.50;3.40;;;;;;;17.99;48.49;100055.14;105219;1254;63771;-54
2023/06/02 00:07:08;;;;;;;5.60;3.40;;;;;;;17.96;48.69;100055.66;105173;1254;60580;-55
2023/06/02 00:09:39;;;;;;;7.90;3.90;;;;;;;17.93;48.67;100058.98;105127;1259;60325;-56
2023/06/02 00:12:08;;;;;;;8.00;3.40;;;;;;;17.91;48.86;100055.05;105227;1255;65769;-55
2023/06/02 00:14:37;;;;;;;6.70;3.20;;;;;;;17.87;48.95;100052.98;105196;1259;62868;-56
2023/06/02 00:17:05;;;;;;;8.40;3.40;;;;;;;17.83;48.90;100053.17;107097;1254;63754;-55
2023/06/02 00:19:34;;;;;;;10.00;3.70;;;;;;;17.80;48.74;100052.67;105260;1254;58937;-57
2023/06/02 00:22:02;;;;;;;9.70;3.50;;;;;;;17.77;48.94;100052.16;105109;1260;60520;-56
2023/06/02 00:24:30;;;;;;;7.40;2.90;;;;;;;17.73;49.14;100055.62;105465;1261;64921;-55
2023/06/02 00:26:57;;;;;;;9.90;3.40;;;;;;;17.70;49.14;100055.61;105093;1258;61546;-55
2023/06/02 00:29:25;;;;;;;8.50;3.20;;;;;;;17.67;49.13;100053.54;105126;1260;63757;-55
2023/06/02 00:31:52;;;;;;;9.40;3.70;;;;;;;17.63;49.20;100051.42;105183;1254;60555;-55
2023/06/02 00:34:20;;;;;;;6.90;3.30;;;;;;;17.61;49.25;100051.52;105591;1260;60504;-56
2023/06/02 00:36:48;;;;;;;8.80;3.60;;;;;;;17.57;49.27;100048.42;104980;1252;63642;-56
2023/06/02 00:39:15;;;;;;;8.00;3.70;;;;;;;17.53;49.30;100049.98;105078;1259;61354;-55
2023/06/02 00:41:44;;;;;;;7.70;3.30;;;;;;;17.48;49.29;100049.27;105068;1260;63843;-56
2023/06/02 00:44:12;;;;;;;6.50;3.30;;;;;;;17.43;49.20;100044.10;105234;1253;60454;-55
2023/06/02 00:46:39;;;;;;;8.60;4.10;;;;;;;17.40;49.23;100047.15;105238;1257;60454;-55
2023/06/02 00:49:07;;;;;;;8.50;3.80;;;;;;;17.36;49.39;100047.67;105239;1260;65364;-55
2023/06/02 00:51:35;;;;;;;6.60;3.50;;;;;;;17.32;49.49;100051.80;104971;1259;61879;-55
2023/06/02 00:54:02;;;;;;;7.40;3.60;;;;;;;17.31;49.37;100055.32;105122;1257;62539;-53
2023/06/02 00:56:30;;;;;;;7.50;3.50;;;;;;;17.29;49.15;100052.30;105067;1255;60654;-55
2023/06/02 00:58:58;;;;;;;8.30;3.80;;;;;;;17.26;49.18;100049.96;105183;1254;60408;-54
2023/06/02 01:01:29;;;;;;;8.60;3.40;;;;;;;17.23;49.24;100051.24;106253;1261;64880;-54
2023/06/02 01:03:57;;;;;;;7.70;3.20;;;;;;;17.21;49.30;100052.75;105711;1258;61815;-55
2023/06/02 01:06:34;;;;;;;8.20;4.10;;;;;;;17.16;49.26;100051.67;105154;1255;62505;-55
2023/06/02 01:09:04;;;;;;;8.70;3.70;;;;;;;17.13;49.35;100051.15;105395;1255;60541;-55
2023/06/02 01:11:32;;;;;;;7.60;3.60;;;;;;;17.09;49.44;100048.52;105278;1259;61164;-56
2023/06/02 01:14:00;;;;;;;8.70;3.60;;;;;;;17.05;49.66;100048.23;105418;1258;63633;-56
2023/06/02 01:16:29;;;;;;;8.10;4.00;;;;;;;17.01;49.42;100047.33;105071;1259;60461;-55
2023/06/02 01:19:01;;;;;;;9.50;3.70;;;;;;;16.99;49.54;100046.73;105463;1257;64336;-55
2023/06/02 01:21:30;;;;;;;8.20;3.20;;;;;;;16.96;49.63;100047.02;105117;1259;60518;-60
2023/06/02 01:23:59;;;;;;;7.70;3.20;;;;;;;16.93;49.58;100043.27;105117;1261;60592;-55
2023/06/02 01:26:29;;;;;;;8.80;3.50;;;;;;;16.91;49.84;100048.14;105103;1255;65473;-55
2023/06/02 01:28:56;;;;;;;7.20;3.70;;;;;;;16.87;50.06;100046.76;105667;1255;61909;-55
2023/06/02 01:31:27;;;;;;;11.00;3.70;;;;;;;16.84;50.03;100049.94;105145;1260;63861;-57
2023/06/02 01:34:15;;;;;;;9.50;3.90;;;;;;;16.80;49.89;100046.48;105623;1257;60447;-54
2023/06/02 01:36:43;;;;;;;9.20;3.40;;;;;;;16.76;49.90;100040.39;106751;1253;60560;-54
2023/06/02 01:39:11;;;;;;;8.00;3.50;;;;;;;16.73;50.15;100044.28;105237;1254;65951;-54
2023/06/02 01:41:41;;;;;;;8.90;3.20;;;;;;;16.70;50.60;100042.06;105202;1259;61507;-53
2023/06/02 01:44:08;;;;;;;9.10;3.70;;;;;;;16.67;50.85;100041.50;105322;1258;63672;-53
2023/06/02 01:46:36;;;;;;;8.20;3.60;;;;;;;16.65;50.63;100048.48;105076;1254;60569;-54
2023/06/02 01:49:03;;;;;;;8.70;3.80;;;;;;;16.62;50.58;100051.85;105274;1254;60978;-55
2023/06/02 01:51:32;;;;;;;8.20;3.80;;;;;;;16.59;50.82;100049.66;105478;1254;64870;-55
2023/06/02 01:54:01;;;;;;;6.20;3.20;;;;;;;16.57;50.97;100050.60;105165;1257;61971;-54
2023/06/02 01:56:29;;;;;;;8.60;3.90;;;;;;;16.55;50.99;100050.11;105486;1259;64230;-55
2023/06/02 01:58:57;;;;;;;10.20;4.30;;;;;;;16.54;51.15;100048.45;105517;1255;60559;-54
2023/06/02 02:01:27;;;;;;;7.70;3.40;;;;;;;16.53;51.39;100048.35;105083;1255;60556;-55
2023/06/02 02:03:55;;;;;;;6.60;3.80;;;;;;;16.51;51.53;100046.23;105274;1254;64919;-54
2023/06/02 02:06:34;;;;;;;7.10;3.30;;;;;;;16.50;51.73;100046.44;105033;1259;61075;-55
2023/06/02 02:09:03;;;;;;;7.80;3.90;;;;;;;16.48;51.54;100046.30;105414;1259;62467;-55
2023/06/02 02:11:31;;;;;;;9.90;3.70;;;;;;;16.47;51.56;100044.95;105034;1259;60484;-55
2023/06/02 02:13:58;;;;;;;9.50;3.70;;;;;;;16.46;52.03;100046.29;105181;1258;60342;-55
2023/06/02 02:16:26;;;;;;;8.30;4.00;;;;;;;16.44;52.05;100044.96;104972;1259;63656;-54
2023/06/02 02:18:56;;;;;;;7.00;3.90;;;;;;;16.41;52.02;100041.71;105453;1254;61930;-55
2023/06/02 02:21:25;;;;;;;7.30;3.90;;;;;;;16.39;52.17;100042.11;105192;1254;63728;-55
2023/06/02 02:23:53;;;;;;;6.60;3.40;;;;;;;16.39;52.19;100045.40;105193;1267;60578;-55
2023/06/02 02:26:21;;;;;;;6.60;4.10;;;;;;;16.38;51.97;100044.70;105066;1257;60446;-55
2023/06/02 02:28:48;;;;;;;7.40;3.80;;;;;;;16.37;52.08;100044.07;105191;1267;65411;-54
2023/06/02 02:31:16;;;;;;;6.80;3.50;;;;;;;16.36;52.26;100045.07;105146;1258;61331;-54
2023/06/02 02:33:43;;;;;;;7.40;3.90;;;;;;;16.36;52.57;100043.47;105157;1254;62501;-50
2023/06/02 02:36:12;;;;;;;6.80;3.60;;;;;;;16.36;52.54;100041.05;105006;1255;60507;-56
2023/06/02 02:38:40;;;;;;;8.20;3.80;;;;;;;16.36;52.52;100038.73;105117;1259;60910;-55
2023/06/02 02:41:08;;;;;;;9.80;4.00;;;;;;;16.36;52.92;100040.19;105161;1254;65495;-56
2023/06/02 02:43:35;;;;;;;7.60;3.80;;;;;;;16.38;53.19;100037.86;105106;1260;61525;-55
2023/06/02 02:46:05;;;;;;;9.20;3.50;;;;;;;16.44;53.17;100039.15;105226;1254;63763;-54
2023/06/02 02:48:33;;;;;;;6.30;3.40;;;;;;;16.52;53.12;100039.95;105183;1255;60481;-56
2023/06/02 02:51:03;;;;;;;7.20;3.80;;;;;;;16.59;53.07;100041.90;105106;1266;60351;-56
2023/06/02 02:53:31;;;;;;;7.50;3.50;;;;;;;16.63;53.31;100043.58;105141;1260;66021;-55
2023/06/02 02:55:59;;;;;;;7.40;3.60;;;;;;;16.68;53.42;100042.60;105485;1255;61292;-55
2023/06/02 02:58:28;;;;;;;7.70;3.70;;;;;;;16.74;53.53;100044.25;105047;1258;62548;-55
2023/06/02 03:00:56;;;;;;;9.60;3.40;;;;;;;16.79;53.82;100046.75;105166;1260;60520;-54
2023/06/02 03:03:24;;;;;;;8.20;4.10;;;;;;;16.83;53.90;100040.67;105187;1260;60415;-54
2023/06/02 03:05:54;;;;;;;7.00;3.80;;;;;;;16.87;53.74;100041.48;105320;1256;63736;-56
2023/06/02 03:08:23;;;;;;;8.40;3.60;;;;;;;16.91;53.67;100041.52;105663;1254;61355;-56
2023/06/02 03:10:52;;;;;;;7.80;3.80;;;;;;;16.95;53.97;100038.08;105644;1254;63723;-55
2023/06/02 03:13:19;;;;;;;6.80;4.00;;;;;;;16.99;53.89;100035.68;105173;1260;60489;-55
2023/06/02 03:15:49;;;;;;;8.10;3.50;;;;;;;17.04;53.68;100039.89;105733;1254;60472;-56
2023/06/02 03:18:17;;;;;;;7.30;3.40;;;;;;;17.08;53.81;100037.29;105750;1261;63733;-55
2023/06/02 03:20:48;;;;;;;9.00;3.90;;;;;;;17.14;53.98;100036.69;105097;1260;61384;-56
2023/06/02 03:23:16;;;;;;;7.90;3.30;;;;;;;17.23;53.82;100034.92;105848;1260;63784;-56
2023/06/02 03:25:44;;;;;;;8.90;3.70;;;;;;;17.35;53.54;100029.70;105065;1259;60559;-55
2023/06/02 03:28:11;;;;;;;7.30;3.30;;;;;;;17.43;53.34;100032.23;104923;1253;60610;-55
2023/06/02 03:30:39;;;;;;;8.60;4.20;;;;;;;17.51;52.82;100033.19;105032;1252;64955;-56
2023/06/02 03:33:07;;;;;;;6.00;3.00;;;;;;;17.58;52.91;100031.73;104855;1257;60418;-56
2023/06/02 03:35:35;;;;;;;11.70;3.50;;;;;;;17.67;52.84;100031.19;104854;1260;71738;-59
2023/06/02 03:38:06;;;;;;;7.20;3.40;;;;;;;17.74;52.64;100031.55;104899;1260;60457;-56
2023/06/02 03:40:33;;;;;;;9.30;3.40;;;;;;;17.81;52.24;100030.38;105088;1254;60431;-55
2023/06/02 03:43:01;;;;;;;7.40;3.50;;;;;;;17.87;51.53;100032.08;105025;1257;64959;-55
2023/06/02 03:45:28;;;;;;;6.70;3.30;;;;;;;17.91;51.21;100028.68;105162;1261;60361;-55
2023/06/02 03:47:56;;;;;;;8.30;3.60;;;;;;;17.96;50.80;100029.21;104928;1261;62414;-55
2023/06/02 03:50:25;;;;;;;6.50;3.10;;;;;;;18.01;50.57;100025.84;106420;1254;60530;-55
2023/06/02 03:52:53;;;;;;;7.00;3.40;;;;;;;18.07;50.01;100025.55;105055;1255;59125;-54
2023/06/02 03:55:22;;;;;;;8.00;3.20;;;;;;;18.13;50.04;100028.90;105750;1259;65337;-55
2023/06/02 03:57:49;;;;;;;6.50;3.60;;;;;;;18.17;49.91;100030.09;105083;1257;62729;-57
2023/06/02 04:00:17;;;;;;;8.20;3.20;;;;;;;18.24;49.84;100029.33;105041;1258;63776;-54
2023/06/02 04:02:49;;;;;;;7.30;3.00;;;;;;;18.29;49.24;100031.38;105707;1257;60539;-55
2023/06/02 04:05:17;;;;;;;10.10;3.80;;;;;;;18.35;48.69;100027.33;105806;1260;60377;-54
2023/06/02 04:07:46;;;;;;;7.30;3.40;;;;;;;18.41;48.32;100023.73;104942;1254;65131;-57
2023/06/02 04:10:14;;;;;;;8.50;4.00;;;;;;;18.48;48.42;100022.98;105042;1260;61331;-54
2023/06/02 04:12:42;;;;;;;9.80;3.90;;;;;;;18.53;48.29;100019.64;105075;1254;63753;-55
2023/06/02 04:15:10;;;;;;;7.30;3.40;;;;;;;18.59;47.72;100017.86;105061;1254;60532;-54
2023/06/02 04:17:37;;;;;;;6.30;3.00;;;;;;;18.66;47.57;100015.49;104987;1260;60705;-55
2023/06/02 04:20:06;;;;;;;6.60;3.00;;;;;;;18.71;47.45;100012.13;105018;1255;63848;-53
2023/06/02 04:22:35;;;;;;;8.50;3.40;;;;;;;18.78;47.10;100015.23;105213;1254;70408;-60
2023/06/02 04:25:04;;;;;;;6.60;2.80;;;;;;;18.83;46.16;100013.27;105045;1260;63704;-58
2023/06/02 04:27:31;;;;;;;5.80;2.90;;;;;;;18.90;45.29;100013.46;106075;1261;60561;-54
2023/06/02 04:30:01;;;;;;;8.50;3.80;;;;;;;18.98;44.72;100011.86;104954;1258;60511;-52
2023/06/02 04:32:30;;;;;;;8.30;3.60;;;;;;;19.05;44.17;100012.37;105044;1257;64888;-56
2023/06/02 04:34:58;;;;;;;7.50;3.20;;;;;;;19.13;43.80;100015.33;105133;1254;61652;-54
2023/06/02 04:37:27;;;;;;;6.90;3.00;;;;;;;19.21;43.92;100009.80;109099;1254;63738;-55
2023/06/02 04:39:57;;;;;;;6.60;3.00;;;;;;;19.29;43.76;100010.73;107710;1257;60661;-59
2023/06/02 04:42:24;;;;;;;7.70;3.10;;;;;;;19.38;43.44;100006.08;105622;1260;60388;-55
2023/06/02 04:44:53;;;;;;;7.30;2.80;;;;;;;19.46;43.40;100007.48;105493;1254;64969;-57
2023/06/02 04:47:22;;;;;;;5.70;3.00;;;;;;;19.55;43.29;100006.11;105513;1257;61433;-57
2023/06/02 04:49:50;;;;;;;7.60;3.20;;;;;;;19.63;43.30;100007.02;105523;1257;62515;-53
2023/06/02 04:52:17;;;;;;;7.20;3.00;;;;;;;19.72;43.39;100008.63;105947;1254;60402;-55
2023/06/02 04:54:46;;;;;;;6.60;3.50;;;;;;;19.80;43.39;100008.71;106795;1254;59215;-55
2023/06/02 04:57:15;;;;;;;6.10;2.90;;;;;;;19.88;43.17;100006.93;106078;1255;64857;-55
2023/06/02 04:59:43;;;;;;;6.80;2.90;;;;;;;19.98;42.39;100010.38;106085;1253;60457;-55
2023/06/02 05:02:12;;;;;;;8.40;2.70;;;;;;;20.07;42.08;100007.99;105215;1259;62441;-56
2023/06/02 05:04:41;;;;;;;6.90;3.10;;;;;;;20.16;41.97;100009.66;105124;1254;60431;-55
2023/06/02 05:07:08;;;;;;;6.50;2.60;;;;;;;20.25;42.17;100006.09;105197;1257;60437;-55
2023/06/02 05:09:36;;;;;;;6.60;2.90;;;;;;;20.34;42.05;100008.87;105113;1254;64403;-56
2023/06/02 05:12:06;;;;;;;7.50;3.50;;;;;;;20.43;41.90;100006.45;105217;1254;61485;-57
2023/06/02 05:14:34;;;;;;;8.10;2.80;;;;;;;20.51;42.10;100003.25;105436;1254;63723;-54
2023/06/02 05:17:02;;;;;;;9.80;3.20;;;;;;;20.59;41.74;100002.94;105266;1254;60587;-55
2023/06/02 05:19:30;;;;;;;9.80;3.50;;;;;;;20.68;41.48;100001.15;105348;1253;60965;-54
2023/06/02 05:21:58;;;;;;;6.60;3.30;;;;;;;20.78;41.49;100000.91;105427;1254;64848;-54
2023/06/02 05:24:25;;;;;;;6.70;2.90;;;;;;;20.88;41.65;99998.77;105610;1256;61403;-55
2023/06/02 05:26:53;;;;;;;7.10;3.10;;;;;;;20.98;41.51;99999.05;105200;1258;63794;-55
2023/06/02 05:29:21;;;;;;;7.30;2.90;;;;;;;21.09;41.36;100001.67;106623;1254;60459;-56
2023/06/02 05:31:48;;;;;;;6.50;2.70;;;;;;;21.20;41.22;99996.44;105317;1254;60633;-56
2023/06/02 05:34:16;;;;;;;7.80;3.00;;;;;;;21.31;41.06;99994.04;106107;1254;64850;-54
2023/06/02 05:36:44;;;;;;;10.30;3.40;;;;;;;21.42;40.81;99991.52;105305;1261;61349;-56
2023/06/02 05:39:14;;;;;;;7.60;3.00;;;;;;;21.54;40.55;99989.30;105213;1254;63713;-55
2023/06/02 05:41:42;;;;;;;10.20;3.00;;;;;;;21.65;40.51;99989.55;105280;1254;60596;-61
2023/06/02 05:44:10;;;;;;;10.10;3.00;;;;;;;21.76;40.56;99993.06;109128;1254;58156;-54
2023/06/02 05:46:40;;;;;;;7.20;2.30;;;;;;;21.86;39.96;99987.61;105230;1254;63798;-54
2023/06/02 05:49:08;;;;;;;9.30;2.80;;;;;;;21.97;39.58;99985.52;105924;1259;64296;-56
2023/06/02 05:51:36;;;;;;;5.60;2.50;;;;;;;22.08;39.48;99986.77;105149;1254;62478;-54
2023/06/02 05:54:06;;;;;;;5.80;2.70;;;;;;;22.19;39.30;99987.79;104912;1254;60565;-55
2023/06/02 05:56:34;;;;;;;9.60;3.00;;;;;;;22.32;39.28;99989.64;108628;1253;59394;-55
2023/06/02 05:59:02;;;;;;;5.90;2.90;;;;;;;22.46;39.17;99987.10;105260;1257;63612;-54
2023/06/02 06:01:30;;;;;;;7.10;2.90;;;;;;;22.57;38.46;99980.71;104819;1259;60426;-54
2023/06/02 06:03:58;;;;;;;6.00;2.80;;;;;;;22.68;37.86;99982.48;105213;1254;63728;-58
2023/06/02 06:06:27;;;;;;;8.10;3.10;;;;;;;22.77;37.98;99981.17;109099;1254;58547;-63
2023/06/02 06:08:55;;;;;;;7.00;3.00;;;;;;;22.88;38.03;99975.65;109260;1253;58514;-59
2023/06/02 06:11:23;;;;;;;9.50;3.20;;;;;;;22.99;37.91;99974.06;109095;1254;64942;-56
2023/06/02 06:13:52;;;;;;;8.40;3.20;;;;;;;23.12;37.51;99973.02;109113;1254;60121;-57
2023/06/02 06:16:19;;;;;;;8.30;3.00;;;;;;;23.25;37.31;99972.79;109116;1253;62436;-57
2023/06/02 06:18:47;;;;;;;7.70;3.00;;;;;;;23.38;37.14;99972.49;109060;1257;58220;-56
2023/06/02 06:21:14;;;;;;;6.70;2.60;;;;;;;23.50;36.75;99969.88;105829;1254;60351;-56
2023/06/02 06:23:42;;;;;;;7.90;2.90;;;;;;;23.62;36.51;99969.71;105046;1254;63644;-58
2023/06/02 06:26:10;;;;;;;6.10;3.00;;;;;;;23.73;36.30;99968.30;106907;1254;61300;-59
2023/06/02 06:28:41;;;;;;;7.10;3.00;;;;;;;23.83;36.22;99964.39;105179;1256;64172;-62
2023/06/02 06:31:11;;;;;;;6.00;2.80;;;;;;;23.92;35.97;99962.91;105009;1254;60558;-61
2023/06/02 06:33:38;;;;;;;6.50;3.30;;;;;;;24.01;35.63;99964.20;105190;1254;60483;-59
2023/06/02 06:36:07;;;;;;;6.40;2.80;;;;;;;24.10;35.94;99962.82;105250;1254;64949;-58
2023/06/02 06:38:35;;;;;;;7.90;2.90;;;;;;;24.20;36.07;99965.09;105231;1261;60464;-57
2023/06/02 06:41:02;;;;;;;7.30;3.30;;;;;;;24.30;34.48;99966.68;105091;1257;64296;-62
2023/06/02 06:43:30;;;;;;;10.70;2.90;;;;;;;24.42;34.24;99959.52;105031;1254;61635;-57
2023/06/02 06:46:23;;;;;;;5.20;2.30;;;;;;;24.55;34.50;99959.75;104919;1253;60473;-61
2023/06/02 06:48:51;;;;;;;7.50;2.50;;;;;;;24.65;33.91;99956.45;108936;1256;64949;-63
2023/06/02 06:51:19;;;;;;;11.10;2.80;;;;;;;24.74;33.88;99956.59;109177;1253;60110;-64
2023/06/02 06:53:47;;;;;;;7.80;2.90;;;;;;;24.82;33.47;99958.63;109165;1253;63683;-60
2023/06/02 06:56:14;;;;;;;6.70;2.80;;;;;;;24.91;33.11;99958.93;109095;1254;58553;-62
2023/06/02 06:58:44;;;;;;;8.20;2.70;;;;;;;25.03;32.63;99961.39;108374;1256;60581;-61
2023/06/02 07:01:12;;;;;;;9.00;2.40;;;;;;;25.13;31.89;99961.88;105069;1257;64921;-69
2023/06/02 07:03:39;;;;;;;8.20;3.20;;;;;;;25.20;32.00;99959.80;105067;1254;61587;-62
2023/06/02 07:06:11;;;;;;;13.80;2.90;;;;;;;25.30;32.02;99957.29;105113;1254;65473;-60
2023/06/02 07:08:39;;;;;;;8.60;2.30;;;;;;;25.41;32.27;99954.22;105215;1254;60587;-60
2023/06/02 07:11:06;;;;;;;6.40;2.60;;;;;;;25.51;32.14;99952.66;105121;1254;60524;-65
2023/06/02 07:13:34;;;;;;;6.60;2.50;;;;;;;25.61;31.98;99955.80;105218;1259;65127;-61
2023/06/02 07:16:01;;;;;;;6.50;2.80;;;;;;;25.69;30.83;99953.44;105447;1259;60926;-60
2023/06/02 07:18:29;;;;;;;4.60;2.20;;;;;;;25.73;30.71;99954.07;105274;1254;63728;-61
2023/06/02 07:20:57;;;;;;;6.20;2.70;;;;;;;25.76;30.95;99952.64;105227;1257;60565;-60
2023/06/02 07:23:24;;;;;;;6.30;3.00;;;;;;;25.80;30.87;99949.60;105174;1258;60416;-63
2023/06/02 07:25:52;;;;;;;5.80;2.60;;;;;;;25.85;30.99;99948.69;105153;1254;64915;-63
2023/06/02 07:28:20;;;;;;;5.20;2.30;;;;;;;25.94;30.71;99946.32;105442;1254;405785;-61
2023/06/02 07:32:38;;;;;;;8.20;2.40;;;;;;;25.89;30.63;99946.48;102062;1291;600911;-63
2023/06/02 07:35:06;;;;;;;4.70;2.30;;;;;;;26.08;30.10;99935.61;104664;1272;59200;-62
2023/06/02 07:37:33;;;;;;;6.40;3.30;;;;;;;26.13;30.01;99937.27;104210;1270;59279;-59
2023/06/02 07:40:01;;;;;;;6.80;2.60;;;;;;;26.19;30.00;99934.21;104343;1271;62333;-61
2023/06/02 07:42:29;;;;;;;6.50;2.70;;;;;;;26.26;29.83;99930.85;105933;1266;61424;-62
2023/06/02 07:44:56;;;;;;;4.70;2.40;;;;;;;26.35;29.96;99940.42;104245;1269;198904;-62
2023/06/02 07:47:24;;;;;;;7.60;2.40;;;;;;;26.43;29.86;99936.27;104481;1264;59397;-62
2023/06/02 07:49:52;;;;;;;5.50;1.90;;;;;;;26.48;29.29;99938.33;104957;1266;58874;-60
2023/06/02 07:52:19;;;;;;;5.30;2.60;;;;;;;26.55;29.03;99938.03;104341;1264;63813;-59
2023/06/02 07:54:47;;;;;;;7.20;2.60;;;;;;;26.61;29.14;99935.24;104340;1268;60120;-58
2023/06/02 07:57:14;;;;;;;9.00;2.90;;;;;;;26.64;28.96;99942.50;104622;1268;63664;-63
2023/06/02 07:59:42;;;;;;;8.20;3.00;;;;;;;26.70;28.51;99941.31;104594;1267;59904;-57
2023/06/02 08:02:09;;;;;;;6.60;2.90;;;;;;;26.73;28.69;99932.04;104463;1266;59830;-59
2023/06/02 08:04:37;;;;;;;6.10;2.90;;;;;;;26.72;28.46;99931.39;104318;1268;64817;-62
2023/06/02 08:07:05;;;;;;;6.10;2.30;;;;;;;26.75;29.13;99934.77;104530;1269;64513;-63
2023/06/02 08:09:33;;;;;;;5.20;2.40;;;;;;;26.82;28.51;99930.05;104565;1264;63842;-58
2023/06/02 08:12:00;;;;;;;9.10;3.00;;;;;;;26.89;28.24;99929.36;104395;1268;59785;-59
2023/06/02 08:14:29;;;;;;;6.90;2.50;;;;;;;26.94;28.03;99927.19;104269;1266;59716;-63
2023/06/02 08:16:57;;;;;;;9.00;2.70;;;;;;;26.99;27.96;99928.67;104359;1264;64160;-58
2023/06/02 08:19:25;;;;;;;6.30;2.70;;;;;;;27.03;27.91;99926.92;104316;1264;61932;-59
2023/06/02 08:21:53;;;;;;;8.90;2.60;;;;;;;27.08;27.50;99936.99;104552;1268;62498;-58
2023/06/02 08:24:24;;;;;;;6.40;2.50;;;;;;;27.12;27.37;99932.74;104377;1268;59711;-60
2023/06/02 08:26:54;;;;;;;8.20;2.90;;;;;;;27.15;27.71;99924.69;105999;1265;59762;-62
2023/06/02 08:29:23;;;;;;;5.50;2.70;;;;;;;27.19;27.98;99929.80;104258;1266;64151;-59
2023/06/02 08:31:51;;;;;;;7.90;2.60;;;;;;;27.23;27.66;99924.80;105004;1267;61358;-58
2023/06/02 08:34:20;;;;;;;8.50;2.70;;;;;;;27.28;27.59;99921.33;105141;1267;63735;-57
2023/06/02 08:36:50;;;;;;;5.80;2.30;;;;;;;27.35;27.43;99930.56;105083;1263;59587;-63
2023/06/02 08:39:17;;;;;;;6.90;2.60;;;;;;;27.39;27.36;99926.27;105554;1268;59675;-59
2023/06/02 08:41:46;;;;;;;6.40;2.40;;;;;;;27.42;27.21;99921.66;104462;1268;64164;-60
2023/06/02 08:44:14;;;;;;;5.90;2.80;;;;;;;27.45;27.17;99920.27;105082;1269;60096;-61
2023/06/02 08:46:45;;;;;;;9.80;2.90;;;;;;;27.48;27.40;99917.65;104550;1264;63771;-58
2023/06/02 08:49:17;;;;;;;6.00;2.80;;;;;;;27.48;27.07;99928.14;104342;1266;59673;-60
2023/06/02 08:51:44;;;;;;;6.70;2.50;;;;;;;27.48;27.47;99926.30;105235;1266;59704;-64
2023/06/02 08:54:12;;;;;;;7.70;2.70;;;;;;;27.53;27.38;99926.42;104388;1273;64187;-62
2023/06/02 08:56:41;;;;;;;5.80;2.80;;;;;;;27.60;26.02;99922.71;104787;1266;60318;-61
2023/06/02 08:59:08;;;;;;;5.00;2.60;;;;;;;27.68;26.20;99917.48;104724;1266;62670;-65
2023/06/02 09:01:36;;;;;;;6.00;3.30;;;;;;;27.75;26.79;99919.84;104824;1268;59692;-64
2023/06/02 09:04:03;;;;;;;5.60;2.60;;;;;;;27.83;27.08;99913.70;104357;1268;59591;-61
2023/06/02 09:06:36;;;;;;;6.70;2.90;;;;;;;27.91;27.24;99910.42;104823;1266;64126;-65
2023/06/02 09:09:04;;;;;;;8.70;2.50;;;;;;;27.98;27.18;99906.46;105184;1268;60244;-64
2023/06/02 09:11:32;;;;;;;7.00;2.50;;;;;;;28.03;27.21;99912.43;104866;1266;63755;-68
2023/06/02 09:13:59;;;;;;;5.40;2.80;;;;;;;28.10;26.05;99910.84;105474;1269;59568;-63
2023/06/02 09:16:38;;;;;;;5.90;2.90;;;;;;;28.15;24.43;99912.60;105589;1264;59560;-69
2023/06/02 09:19:05;;;;;;;7.60;2.60;;;;;;;28.18;24.61;99907.27;105469;1268;64207;-63
2023/06/02 09:21:33;;;;;;;6.80;2.40;;;;;;;28.22;24.59;99904.78;105599;1268;61385;-65
2023/06/02 09:24:02;;;;;;;24.70;3.40;;;;;;;28.28;24.63;99907.61;105301;1266;62670;-63
2023/06/02 09:26:49;;;;;;;8.80;2.80;;;;;;;28.32;24.67;99900.96;105122;1263;59742;-67
2023/06/02 09:29:18;;;;;;;5.90;2.70;;;;;;;28.36;24.93;99898.08;105900;1268;59720;-63
2023/06/02 09:31:52;;;;;;;8.20;2.90;;;;;;;28.43;24.81;99911.80;105842;1262;64130;-66
2023/06/02 09:34:22;;;;;;;6.90;3.00;;;;;;;28.48;24.54;99905.79;105567;1257;62052;-64
2023/06/02 09:36:51;;;;;;;5.50;2.90;;;;;;;28.51;24.69;99899.81;106336;1261;63768;-65
2023/06/02 09:39:38;;;;;;;5.50;2.70;;;;;;;28.56;24.83;99898.27;106034;1262;59790;-68
2023/06/02 09:42:06;;;;;;;7.30;2.70;;;;;;;28.63;24.74;99886.45;105671;1257;59663;-64
2023/06/02 09:44:34;;;;;;;6.20;2.80;;;;;;;28.68;24.84;99882.83;105574;1260;64119;-66
2023/06/02 09:47:03;;;;;;;6.70;3.00;;;;;;;28.72;24.61;99886.38;106079;1256;61842;-68
2023/06/02 09:49:38;;;;;;;7.90;3.20;;;;;;;28.75;24.47;99878.66;106738;1257;63672;-70
2023/06/02 09:52:16;;;;;;;6.00;2.90;;;;;;;28.78;24.58;99875.66;105759;1262;59735;-63
2023/06/02 09:54:47;;;;;;;5.20;2.70;;;;;;;28.80;24.56;99873.83;105270;1258;59763;-68
2023/06/02 09:57:16;;;;;;;8.50;2.60;;;;;;;28.85;25.02;99873.61;106083;1262;64589;-64
2023/06/02 09:59:44;;;;;;;7.80;3.10;;;;;;;28.93;25.16;99869.90;105862;1256;61450;-64
2023/06/02 10:02:12;;;;;;;5.90;3.00;;;;;;;28.99;24.87;99864.10;105880;1260;63730;-63
2023/06/02 10:04:40;;;;;;;6.50;2.90;;;;;;;29.00;24.57;99862.98;106024;1257;60388;-68
2023/06/02 10:07:16;;;;;;;6.60;2.70;;;;;;;29.00;24.12;99865.30;106017;1261;59612;-68
2023/06/02 10:10:08;;;;;;;5.70;2.50;;;;;;;29.03;24.35;99863.92;105997;1258;64054;-63
2023/06/02 10:12:54;;;;;;;5.50;3.00;;;;;;;29.12;24.46;99852.95;106038;1258;61825;-66
2023/06/02 10:15:28;;;;;;;5.90;2.80;;;;;;;29.23;24.32;99856.36;105263;1261;62571;-60
2023/06/02 10:18:18;;;;;;;7.50;3.10;;;;;;;29.34;23.78;99859.64;105910;1263;59653;-65
2023/06/02 10:21:23;;;;;;;5.20;2.70;;;;;;;29.40;23.44;99860.94;105083;1262;59603;-63
2023/06/02 10:24:20;;;;;;;5.70;3.20;;;;;;;29.45;23.05;99852.51;104702;1261;62816;-66
2023/06/02 10:26:55;;;;;;;5.20;2.80;;;;;;;29.48;23.31;99849.80;104772;1261;61516;-65
2023/06/02 10:29:25;;;;;;;6.50;3.30;;;;;;;29.47;23.52;99846.45;105213;1263;64404;-61
2023/06/02 10:31:53;;;;;;;7.90;2.60;;;;;;;29.45;23.89;99849.21;104829;1264;60065;-61
2023/06/02 10:34:38;;;;;;;5.50;2.90;;;;;;;29.47;23.90;99846.98;104854;1262;59574;-60
2023/06/02 10:37:13;;;;;;;5.20;2.50;;;;;;;29.48;23.61;99844.83;104360;1271;64546;-65
2023/06/02 10:39:43;;;;;;;9.20;3.00;;;;;;;29.50;23.64;99838.88;104993;1262;61345;-63
2023/06/02 10:42:12;;;;;;;5.70;2.60;;;;;;;29.54;22.97;99829.58;104969;1261;63916;-68
2023/06/02 10:44:40;;;;;;;8.10;2.70;;;;;;;29.59;23.06;99826.47;105741;1260;59625;-67
2023/06/02 10:47:20;;;;;;;5.40;2.50;;;;;;;29.66;22.94;99827.80;105931;1256;59846;-69
2023/06/02 10:49:52;;;;;;;6.50;2.60;;;;;;;29.70;23.20;99829.88;105930;1257;64138;-63
2023/06/02 10:52:20;;;;;;;5.30;2.90;;;;;;;29.72;22.85;99828.98;105658;1260;60303;-66
2023/06/02 10:55:06;;;;;;;8.20;3.20;;;;;;;29.76;22.98;99825.27;105982;1262;62479;-63
2023/06/02 10:57:48;;;;;;;8.60;3.40;;;;;;;29.84;23.30;99829.70;106149;1260;60548;-63
2023/06/02 11:00:39;;;;;;;6.40;3.00;;;;;;;29.89;22.69;99823.66;106134;1267;59653;-67
2023/06/02 11:03:32;;;;;;;5.40;2.80;;;;;;;29.88;23.00;99818.88;105359;1265;64237;-68
2023/06/02 11:06:33;;;;;;;7.60;2.90;;;;;;;29.85;23.58;99810.14;105822;1264;61369;-67
2023/06/02 11:09:33;;;;;;;5.90;2.70;;;;;;;29.91;23.56;99802.67;105462;1260;63754;-65
2023/06/02 11:12:00;;;;;;;6.90;2.60;;;;;;;30.00;23.04;99807.21;105878;1263;59857;-66
2023/06/02 11:15:06;;;;;;;4.40;2.50;;;;;;;30.03;22.64;99805.65;105525;1263;59643;-65
2023/06/02 11:18:01;;;;;;;6.30;3.00;;;;;;;30.06;22.57;99792.04;105695;1265;64075;-64
2023/06/02 11:20:35;;;;;;;6.30;2.80;;;;;;;30.12;22.99;99795.25;104604;1260;61375;-64
2023/06/02 11:23:06;;;;;;;5.70;3.30;;;;;;;30.18;23.10;99800.54;105419;1260;63747;-62
2023/06/02 11:25:34;;;;;;;5.00;2.60;;;;;;;30.28;22.89;99802.19;105536;1264;59791;-61
2023/06/02 11:28:04;;;;;;;7.00;3.00;;;;;;;30.34;22.63;99795.33;104316;1260;59971;-66
2023/06/02 11:30:44;;;;;;;6.30;2.80;;;;;;;30.40;22.89;99786.13;104761;1265;64184;-68
2023/06/02 11:33:15;;;;;;;7.00;2.90;;;;;;;30.53;23.07;99783.86;105236;1273;60151;-66
2023/06/02 11:36:08;;;;;;;7.50;2.70;;;;;;;30.70;23.26;99779.09;105923;1256;63701;-64
2023/06/02 11:38:39;;;;;;;8.70;3.40;;;;;;;30.90;22.61;99777.20;105379;1258;59643;-66